sensor_id;sensor_type;location;lat;lon;timestamp;P1;durP1;ratioP1;P2;durP2;ratioP2
14584;SDS011;7379;51.506;11.876;2023-07-09T00:02:01;5.78;;;5.18;;
14584;SDS011;7379;51.506;11.876;2023-07-09T00:04:28;7.57;;;5.35;;
14584;SDS011;7379;51.506;11.876;2023-07-09T00:06:55;5.88;;;5.22;;
14584;SDS011;7379;51.506;11.876;2023-07-09T00:09:26;5.88;;;5.28;;
14584;SDS011;7379;51.506;11.876;2023-07-09T00:11:54;6.20;;;5.60;;
14584;SDS011;7379;51.506;11.876;2023-07-09T00:14:21;5.60;;;5.10;;
14584;SDS011;7379;51.506;11.876;2023-07-09T00:16:47;6.85;;;5.75;;
14584;SDS011;7379;51.506;11.876;2023-07-09T00:19:15;6.43;;;5.75;;
14584;SDS011;7379;51.506;11.876;2023-07-09T00:21:44;5.85;;;5.22;;
14584;SDS011;7379;51.506;11.876;2023-07-09T00:24:11;6.05;;;5.45;;
14584;SDS011;7379;51.506;11.876;2023-07-09T00:26:39;6.20;;;5.60;;
14584;SDS011;7379;51.506;11.876;2023-07-09T00:29:09;6.32;;;5.53;;
14584;SDS011;7379;51.506;11.876;2023-07-09T00:35:01;6.28;;;5.30;;
14584;SDS011;7379;51.506;11.876;2023-07-09T00:37:29;5.63;;;5.13;;
14584;SDS011;7379;51.506;11.876;2023-07-09T00:39:56;6.13;;;5.53;;
14584;SDS011;7379;51.506;11.876;2023-07-09T00:42:23;5.65;;;5.15;;
14584;SDS011;7379;51.506;11.876;2023-07-09T00:44:52;6.10;;;5.50;;
14584;SDS011;7379;51.506;11.876;2023-07-09T00:47:27;5.70;;;5.20;;
14584;SDS011;7379;51.506;11.876;2023-07-09T00:50:00;6.97;;;5.43;;
14584;SDS011;7379;51.506;11.876;2023-07-09T00:52:35;6.10;;;5.45;;
14584;SDS011;7379;51.506;11.876;2023-07-09T00:55:10;6.53;;;5.57;;
14584;SDS011;7379;51.506;11.876;2023-07-09T00:57:41;6.63;;;5.60;;
14584;SDS011;7379;51.506;11.876;2023-07-09T01:00:22;5.90;;;5.30;;
14584;SDS011;7379;51.506;11.876;2023-07-09T01:02:53;5.97;;;5.38;;
14584;SDS011;7379;51.506;11.876;2023-07-09T01:05:20;6.40;;;5.40;;
14584;SDS011;7379;51.506;11.876;2023-07-09T01:07:47;6.88;;;5.55;;
14584;SDS011;7379;51.506;11.876;2023-07-09T01:10:14;6.30;;;5.70;;
14584;SDS011;7379;51.506;11.876;2023-07-09T01:12:43;6.18;;;5.57;;
14584;SDS011;7379;51.506;11.876;2023-07-09T01:15:12;6.10;;;5.50;;
14584;SDS011;7379;51.506;11.876;2023-07-09T01:17:41;5.93;;;5.32;;
14584;SDS011;7379;51.506;11.876;2023-07-09T01:20:14;7.68;;;5.65;;
14584;SDS011;7379;51.506;11.876;2023-07-09T01:22:46;6.20;;;5.60;;
14584;SDS011;7379;51.506;11.876;2023-07-09T01:25:15;6.40;;;5.38;;
14584;SDS011;7379;51.506;11.876;2023-07-09T01:27:45;6.50;;;5.28;;
14584;SDS011;7379;51.506;11.876;2023-07-09T01:30:16;6.65;;;5.85;;
14584;SDS011;7379;51.506;11.876;2023-07-09T01:32:47;6.32;;;5.55;;
14584;SDS011;7379;51.506;11.876;2023-07-09T01:35:15;6.25;;;5.65;;
14584;SDS011;7379;51.506;11.876;2023-07-09T01:37:43;6.32;;;5.40;;
14584;SDS011;7379;51.506;11.876;2023-07-09T01:40:14;6.45;;;5.60;;
14584;SDS011;7379;51.506;11.876;2023-07-09T01:42:42;6.20;;;5.60;;
14584;SDS011;7379;51.506;11.876;2023-07-09T01:45:09;5.63;;;5.13;;
14584;SDS011;7379;51.506;11.876;2023-07-09T01:47:37;6.05;;;5.45;;
14584;SDS011;7379;51.506;11.876;2023-07-09T01:50:05;6.88;;;5.50;;
14584;SDS011;7379;51.506;11.876;2023-07-09T01:52:35;6.00;;;5.40;;
14584;SDS011;7379;51.506;11.876;2023-07-09T01:55:04;7.45;;;5.72;;
14584;SDS011;7379;51.506;11.876;2023-07-09T01:57:33;6.38;;;5.78;;
14584;SDS011;7379;51.506;11.876;2023-07-09T02:00:00;5.57;;;5.03;;
14584;SDS011;7379;51.506;11.876;2023-07-09T02:02:30;6.18;;;5.30;;
14584;SDS011;7379;51.506;11.876;2023-07-09T02:04:58;5.90;;;5.40;;
14584;SDS011;7379;51.506;11.876;2023-07-09T02:07:26;6.15;;;5.35;;
14584;SDS011;7379;51.506;11.876;2023-07-09T02:09:52;6.13;;;5.53;;
14584;SDS011;7379;51.506;11.876;2023-07-09T02:12:19;8.65;;;5.93;;
14584;SDS011;7379;51.506;11.876;2023-07-09T02:14:48;6.07;;;5.47;;
14584;SDS011;7379;51.506;11.876;2023-07-09T02:17:14;6.28;;;5.50;;
14584;SDS011;7379;51.506;11.876;2023-07-09T02:19:42;6.82;;;5.20;;
14584;SDS011;7379;51.506;11.876;2023-07-09T02:22:09;8.55;;;5.55;;
14584;SDS011;7379;51.506;11.876;2023-07-09T02:24:36;6.90;;;5.22;;
14584;SDS011;7379;51.506;11.876;2023-07-09T02:27:05;5.93;;;5.32;;
14584;SDS011;7379;51.506;11.876;2023-07-09T02:29:35;6.55;;;5.20;;
14584;SDS011;7379;51.506;11.876;2023-07-09T02:32:04;6.00;;;5.43;;
14584;SDS011;7379;51.506;11.876;2023-07-09T02:34:31;5.47;;;4.97;;
14584;SDS011;7379;51.506;11.876;2023-07-09T02:36:58;6.07;;;5.47;;
14584;SDS011;7379;51.506;11.876;2023-07-09T02:39:25;7.88;;;5.70;;
14584;SDS011;7379;51.506;11.876;2023-07-09T02:41:52;6.63;;;5.60;;
14584;SDS011;7379;51.506;11.876;2023-07-09T02:44:19;6.65;;;5.47;;
14584;SDS011;7379;51.506;11.876;2023-07-09T02:46:46;6.25;;;5.65;;
14584;SDS011;7379;51.506;11.876;2023-07-09T02:49:14;6.63;;;5.40;;
14584;SDS011;7379;51.506;11.876;2023-07-09T02:51:41;6.57;;;5.82;;
14584;SDS011;7379;51.506;11.876;2023-07-09T02:54:08;6.05;;;5.07;;
14584;SDS011;7379;51.506;11.876;2023-07-09T02:56:35;5.97;;;5.38;;
14584;SDS011;7379;51.506;11.876;2023-07-09T02:59:02;6.30;;;5.70;;
14584;SDS011;7379;51.506;11.876;2023-07-09T03:01:29;6.45;;;5.75;;
14584;SDS011;7379;51.506;11.876;2023-07-09T03:03:59;6.20;;;5.45;;
14584;SDS011;7379;51.506;11.876;2023-07-09T03:06:28;6.40;;;5.65;;
14584;SDS011;7379;51.506;11.876;2023-07-09T03:08:57;6.43;;;5.30;;
14584;SDS011;7379;51.506;11.876;2023-07-09T03:11:25;6.55;;;5.75;;
14584;SDS011;7379;51.506;11.876;2023-07-09T03:13:53;6.40;;;5.70;;
14584;SDS011;7379;51.506;11.876;2023-07-09T03:16:20;6.30;;;5.70;;
14584;SDS011;7379;51.506;11.876;2023-07-09T03:18:47;6.10;;;5.60;;
14584;SDS011;7379;51.506;11.876;2023-07-09T03:21:14;6.22;;;5.63;;
14584;SDS011;7379;51.506;11.876;2023-07-09T03:23:42;5.93;;;5.32;;
14584;SDS011;7379;51.506;11.876;2023-07-09T03:26:08;5.95;;;5.38;;
14584;SDS011;7379;51.506;11.876;2023-07-09T03:28:35;7.50;;;5.90;;
14584;SDS011;7379;51.506;11.876;2023-07-09T03:31:02;6.50;;;5.68;;
14584;SDS011;7379;51.506;11.876;2023-07-09T03:33:28;6.22;;;5.63;;
14584;SDS011;7379;51.506;11.876;2023-07-09T03:35:55;6.60;;;6.00;;
14584;SDS011;7379;51.506;11.876;2023-07-09T03:38:22;6.50;;;5.82;;
14584;SDS011;7379;51.506;11.876;2023-07-09T03:40:53;7.22;;;5.90;;
14584;SDS011;7379;51.506;11.876;2023-07-09T03:43:20;6.28;;;5.68;;
14584;SDS011;7379;51.506;11.876;2023-07-09T03:45:49;6.35;;;5.75;;
14584;SDS011;7379;51.506;11.876;2023-07-09T03:48:16;6.38;;;5.78;;
14584;SDS011;7379;51.506;11.876;2023-07-09T03:50:45;6.57;;;5.97;;
14584;SDS011;7379;51.506;11.876;2023-07-09T03:53:13;6.35;;;5.75;;
14584;SDS011;7379;51.506;11.876;2023-07-09T03:55:40;7.13;;;5.90;;
14584;SDS011;7379;51.506;11.876;2023-07-09T03:58:08;7.00;;;5.70;;
14584;SDS011;7379;51.506;11.876;2023-07-09T04:00:35;7.00;;;6.30;;
14584;SDS011;7379;51.506;11.876;2023-07-09T04:03:02;7.10;;;5.80;;
14584;SDS011;7379;51.506;11.876;2023-07-09T04:05:29;7.45;;;6.28;;
14584;SDS011;7379;51.506;11.876;2023-07-09T04:07:55;7.05;;;6.32;;
14584;SDS011;7379;51.506;11.876;2023-07-09T04:10:22;7.63;;;5.78;;
14584;SDS011;7379;51.506;11.876;2023-07-09T04:12:49;6.70;;;6.00;;
14584;SDS011;7379;51.506;11.876;2023-07-09T04:15:17;6.63;;;6.03;;
14584;SDS011;7379;51.506;11.876;2023-07-09T04:17:44;6.10;;;5.60;;
14584;SDS011;7379;51.506;11.876;2023-07-09T04:20:11;6.85;;;6.15;;
14584;SDS011;7379;51.506;11.876;2023-07-09T04:22:39;7.03;;;5.60;;
14584;SDS011;7379;51.506;11.876;2023-07-09T04:25:07;6.30;;;5.72;;
14584;SDS011;7379;51.506;11.876;2023-07-09T04:27:35;6.68;;;6.00;;
14584;SDS011;7379;51.506;11.876;2023-07-09T04:30:03;6.32;;;5.70;;
14584;SDS011;7379;51.506;11.876;2023-07-09T04:32:32;7.32;;;5.88;;
14584;SDS011;7379;51.506;11.876;2023-07-09T04:34:59;6.38;;;5.75;;
14584;SDS011;7379;51.506;11.876;2023-07-09T04:37:25;7.13;;;6.03;;
14584;SDS011;7379;51.506;11.876;2023-07-09T04:39:52;6.60;;;5.88;;
14584;SDS011;7379;51.506;11.876;2023-07-09T04:42:19;7.57;;;6.05;;
14584;SDS011;7379;51.506;11.876;2023-07-09T04:44:46;6.88;;;6.15;;
14584;SDS011;7379;51.506;11.876;2023-07-09T04:47:12;6.40;;;5.80;;
14584;SDS011;7379;51.506;11.876;2023-07-09T04:49:41;7.18;;;5.88;;
14584;SDS011;7379;51.506;11.876;2023-07-09T04:52:08;6.45;;;5.85;;
14584;SDS011;7379;51.506;11.876;2023-07-09T04:54:36;6.10;;;5.55;;
14584;SDS011;7379;51.506;11.876;2023-07-09T04:57:04;6.30;;;5.70;;
14584;SDS011;7379;51.506;11.876;2023-07-09T04:59:31;5.50;;;5.00;;
14584;SDS011;7379;51.506;11.876;2023-07-09T05:01:58;5.72;;;5.15;;
14584;SDS011;7379;51.506;11.876;2023-07-09T05:04:25;6.20;;;5.60;;
14584;SDS011;7379;51.506;11.876;2023-07-09T05:06:54;6.30;;;5.80;;
14584;SDS011;7379;51.506;11.876;2023-07-09T05:09:20;6.05;;;5.55;;
14584;SDS011;7379;51.506;11.876;2023-07-09T05:11:48;5.95;;;5.30;;
14584;SDS011;7379;51.506;11.876;2023-07-09T05:14:15;5.97;;;5.38;;
14584;SDS011;7379;51.506;11.876;2023-07-09T05:16:42;6.13;;;5.53;;
14584;SDS011;7379;51.506;11.876;2023-07-09T05:19:10;7.55;;;5.53;;
14584;SDS011;7379;51.506;11.876;2023-07-09T05:21:37;5.95;;;5.45;;
14584;SDS011;7379;51.506;11.876;2023-07-09T05:24:05;6.93;;;5.90;;
14584;SDS011;7379;51.506;11.876;2023-07-09T05:26:32;7.03;;;5.63;;
14584;SDS011;7379;51.506;11.876;2023-07-09T05:28:59;6.65;;;5.93;;
14584;SDS011;7379;51.506;11.876;2023-07-09T05:31:26;6.70;;;6.10;;
14584;SDS011;7379;51.506;11.876;2023-07-09T05:33:52;6.63;;;5.90;;
14584;SDS011;7379;51.506;11.876;2023-07-09T05:36:19;6.32;;;5.80;;
14584;SDS011;7379;51.506;11.876;2023-07-09T05:38:46;6.72;;;6.10;;
14584;SDS011;7379;51.506;11.876;2023-07-09T05:41:14;6.72;;;6.03;;
14584;SDS011;7379;51.506;11.876;2023-07-09T05:43:42;6.57;;;5.97;;
14584;SDS011;7379;51.506;11.876;2023-07-09T05:46:09;9.07;;;6.20;;
14584;SDS011;7379;51.506;11.876;2023-07-09T05:48:36;6.32;;;5.50;;
14584;SDS011;7379;51.506;11.876;2023-07-09T05:51:02;6.93;;;6.32;;
14584;SDS011;7379;51.506;11.876;2023-07-09T05:53:29;7.47;;;6.25;;
14584;SDS011;7379;51.506;11.876;2023-07-09T05:55:57;6.57;;;5.97;;
14584;SDS011;7379;51.506;11.876;2023-07-09T05:58:25;6.70;;;6.10;;
14584;SDS011;7379;51.506;11.876;2023-07-09T06:00:52;6.00;;;5.40;;
14584;SDS011;7379;51.506;11.876;2023-07-09T06:03:21;6.95;;;6.20;;
14584;SDS011;7379;51.506;11.876;2023-07-09T06:05:49;8.00;;;5.88;;
14584;SDS011;7379;51.506;11.876;2023-07-09T06:08:17;7.55;;;6.32;;
14584;SDS011;7379;51.506;11.876;2023-07-09T06:10:50;6.80;;;6.20;;
14584;SDS011;7379;51.506;11.876;2023-07-09T06:13:18;6.60;;;6.00;;
14584;SDS011;7379;51.506;11.876;2023-07-09T06:15:47;6.85;;;6.00;;
14584;SDS011;7379;51.506;11.876;2023-07-09T06:18:14;6.80;;;6.10;;
14584;SDS011;7379;51.506;11.876;2023-07-09T06:20:41;7.28;;;6.25;;
14584;SDS011;7379;51.506;11.876;2023-07-09T06:23:11;6.88;;;6.18;;
14584;SDS011;7379;51.506;11.876;2023-07-09T06:25:38;7.80;;;6.40;;
14584;SDS011;7379;51.506;11.876;2023-07-09T06:28:05;6.80;;;6.13;;
14584;SDS011;7379;51.506;11.876;2023-07-09T06:30:31;7.65;;;6.70;;
14584;SDS011;7379;51.506;11.876;2023-07-09T06:32:59;7.60;;;6.18;;
14584;SDS011;7379;51.506;11.876;2023-07-09T06:35:26;7.53;;;6.75;;
14584;SDS011;7379;51.506;11.876;2023-07-09T06:37:53;7.55;;;6.20;;
14584;SDS011;7379;51.506;11.876;2023-07-09T06:40:19;6.95;;;6.30;;
14584;SDS011;7379;51.506;11.876;2023-07-09T06:42:46;6.43;;;5.90;;
14584;SDS011;7379;51.506;11.876;2023-07-09T06:45:13;6.57;;;5.97;;
14584;SDS011;7379;51.506;11.876;2023-07-09T06:47:40;7.03;;;6.43;;
14584;SDS011;7379;51.506;11.876;2023-07-09T06:50:08;7.00;;;6.32;;
14584;SDS011;7379;51.506;11.876;2023-07-09T06:52:35;6.90;;;6.28;;
14584;SDS011;7379;51.506;11.876;2023-07-09T06:55:01;6.45;;;5.85;;
14584;SDS011;7379;51.506;11.876;2023-07-09T06:57:28;6.57;;;5.97;;
14584;SDS011;7379;51.506;11.876;2023-07-09T06:59:55;7.00;;;6.32;;
14584;SDS011;7379;51.506;11.876;2023-07-09T07:02:21;7.25;;;6.07;;
14584;SDS011;7379;51.506;11.876;2023-07-09T07:04:49;6.72;;;6.10;;
14584;SDS011;7379;51.506;11.876;2023-07-09T07:07:17;6.85;;;6.22;;
14584;SDS011;7379;51.506;11.876;2023-07-09T07:09:44;7.18;;;6.20;;
14584;SDS011;7379;51.506;11.876;2023-07-09T07:12:12;6.97;;;6.28;;
14584;SDS011;7379;51.506;11.876;2023-07-09T07:14:49;6.55;;;5.95;;
14584;SDS011;7379;51.506;11.876;2023-07-09T07:17:15;7.18;;;6.47;;
14584;SDS011;7379;51.506;11.876;2023-07-09T07:19:43;6.72;;;6.13;;
14584;SDS011;7379;51.506;11.876;2023-07-09T07:22:09;7.03;;;6.40;;
14584;SDS011;7379;51.506;11.876;2023-07-09T07:24:38;6.85;;;6.15;;
14584;SDS011;7379;51.506;11.876;2023-07-09T07:27:04;7.00;;;6.10;;
14584;SDS011;7379;51.506;11.876;2023-07-09T07:29:31;7.07;;;6.38;;
14584;SDS011;7379;51.506;11.876;2023-07-09T07:31:58;7.07;;;6.38;;
14584;SDS011;7379;51.506;11.876;2023-07-09T07:34:25;7.50;;;6.20;;
14584;SDS011;7379;51.506;11.876;2023-07-09T07:36:52;6.40;;;5.90;;
14584;SDS011;7379;51.506;11.876;2023-07-09T07:39:19;6.78;;;6.18;;
14584;SDS011;7379;51.506;11.876;2023-07-09T07:41:47;6.78;;;6.18;;
14584;SDS011;7379;51.506;11.876;2023-07-09T07:44:15;6.60;;;5.90;;
14584;SDS011;7379;51.506;11.876;2023-07-09T07:46:42;8.10;;;6.00;;
14584;SDS011;7379;51.506;11.876;2023-07-09T07:49:09;6.75;;;6.13;;
14584;SDS011;7379;51.506;11.876;2023-07-09T07:51:36;8.32;;;6.60;;
14584;SDS011;7379;51.506;11.876;2023-07-09T07:54:03;7.60;;;5.80;;
14584;SDS011;7379;51.506;11.876;2023-07-09T07:56:31;7.20;;;6.47;;
14584;SDS011;7379;51.506;11.876;2023-07-09T07:58:59;6.80;;;6.15;;
14584;SDS011;7379;51.506;11.876;2023-07-09T08:01:26;6.72;;;6.03;;
14584;SDS011;7379;51.506;11.876;2023-07-09T08:03:53;7.05;;;5.97;;
14584;SDS011;7379;51.506;11.876;2023-07-09T08:06:20;7.20;;;5.90;;
14584;SDS011;7379;51.506;11.876;2023-07-09T08:08:46;6.18;;;5.60;;
14584;SDS011;7379;51.506;11.876;2023-07-09T08:11:14;8.25;;;5.90;;
14584;SDS011;7379;51.506;11.876;2023-07-09T08:13:41;8.70;;;6.20;;
14584;SDS011;7379;51.506;11.876;2023-07-09T08:16:09;6.45;;;5.85;;
14584;SDS011;7379;51.506;11.876;2023-07-09T08:18:37;6.50;;;5.80;;
14584;SDS011;7379;51.506;11.876;2023-07-09T08:21:04;6.63;;;5.93;;
14584;SDS011;7379;51.506;11.876;2023-07-09T08:23:31;7.70;;;6.00;;
14584;SDS011;7379;51.506;11.876;2023-07-09T08:25:58;6.80;;;6.05;;
14584;SDS011;7379;51.506;11.876;2023-07-09T08:28:27;6.63;;;5.85;;
14584;SDS011;7379;51.506;11.876;2023-07-09T08:30:55;6.63;;;6.00;;
14584;SDS011;7379;51.506;11.876;2023-07-09T08:33:23;6.43;;;5.82;;
14584;SDS011;7379;51.506;11.876;2023-07-09T08:35:51;6.85;;;6.20;;
14584;SDS011;7379;51.506;11.876;2023-07-09T08:38:18;7.57;;;6.40;;
14584;SDS011;7379;51.506;11.876;2023-07-09T08:40:49;6.63;;;6.03;;
14584;SDS011;7379;51.506;11.876;2023-07-09T08:43:22;6.65;;;5.95;;
14584;SDS011;7379;51.506;11.876;2023-07-09T08:46:01;6.75;;;5.65;;
14584;SDS011;7379;51.506;11.876;2023-07-09T08:48:35;6.43;;;5.82;;
14584;SDS011;7379;51.506;11.876;2023-07-09T08:51:08;7.10;;;5.53;;
14584;SDS011;7379;51.506;11.876;2023-07-09T08:53:42;7.45;;;6.28;;
14584;SDS011;7379;51.506;11.876;2023-07-09T08:56:14;7.03;;;6.10;;
14584;SDS011;7379;51.506;11.876;2023-07-09T08:58:43;8.35;;;6.22;;
14584;SDS011;7379;51.506;11.876;2023-07-09T09:01:14;6.80;;;6.10;;
14584;SDS011;7379;51.506;11.876;2023-07-09T09:03:48;6.72;;;6.03;;
14584;SDS011;7379;51.506;11.876;2023-07-09T09:06:17;6.15;;;5.55;;
14584;SDS011;7379;51.506;11.876;2023-07-09T09:08:49;7.20;;;6.15;;
14584;SDS011;7379;51.506;11.876;2023-07-09T09:11:39;6.43;;;5.57;;
14584;SDS011;7379;51.506;11.876;2023-07-09T09:14:15;7.25;;;6.00;;
14584;SDS011;7379;51.506;11.876;2023-07-09T09:16:49;8.18;;;6.15;;
14584;SDS011;7379;51.506;11.876;2023-07-09T09:19:20;7.10;;;5.78;;
14584;SDS011;7379;51.506;11.876;2023-07-09T09:21:54;6.90;;;6.30;;
14584;SDS011;7379;51.506;11.876;2023-07-09T09:24:26;6.65;;;6.05;;
14584;SDS011;7379;51.506;11.876;2023-07-09T09:26:57;6.25;;;5.65;;
14584;SDS011;7379;51.506;11.876;2023-07-09T09:29:25;7.03;;;6.03;;
14584;SDS011;7379;51.506;11.876;2023-07-09T09:31:53;8.68;;;5.65;;
14584;SDS011;7379;51.506;11.876;2023-07-09T09:34:24;6.65;;;6.00;;
14584;SDS011;7379;51.506;11.876;2023-07-09T09:36:53;7.00;;;6.30;;
14584;SDS011;7379;51.506;11.876;2023-07-09T09:39:20;6.93;;;5.60;;
14584;SDS011;7379;51.506;11.876;2023-07-09T09:41:51;6.57;;;5.88;;
14584;SDS011;7379;51.506;11.876;2023-07-09T09:44:20;7.40;;;5.72;;
14584;SDS011;7379;51.506;11.876;2023-07-09T09:46:49;6.93;;;6.22;;
14584;SDS011;7379;51.506;11.876;2023-07-09T09:49:16;6.93;;;6.00;;
14584;SDS011;7379;51.506;11.876;2023-07-09T09:51:45;6.65;;;5.93;;
14584;SDS011;7379;51.506;11.876;2023-07-09T09:54:14;6.35;;;5.75;;
14584;SDS011;7379;51.506;11.876;2023-07-09T09:56:44;6.40;;;5.80;;
14584;SDS011;7379;51.506;11.876;2023-07-09T09:59:16;6.68;;;6.07;;
14584;SDS011;7379;51.506;11.876;2023-07-09T10:01:45;6.20;;;5.60;;
14584;SDS011;7379;51.506;11.876;2023-07-09T10:04:16;7.65;;;5.93;;
14584;SDS011;7379;51.506;11.876;2023-07-09T10:06:47;6.25;;;5.60;;
14584;SDS011;7379;51.506;11.876;2023-07-09T10:09:19;7.15;;;5.80;;
14584;SDS011;7379;51.506;11.876;2023-07-09T10:12:08;6.22;;;5.63;;
14584;SDS011;7379;51.506;11.876;2023-07-09T10:14:41;6.90;;;6.00;;
14584;SDS011;7379;51.506;11.876;2023-07-09T10:17:18;5.97;;;5.38;;
14584;SDS011;7379;51.506;11.876;2023-07-09T10:19:49;6.20;;;5.55;;
14584;SDS011;7379;51.506;11.876;2023-07-09T10:22:32;6.28;;;5.68;;
14584;SDS011;7379;51.506;11.876;2023-07-09T10:25:28;6.10;;;5.32;;
14584;SDS011;7379;51.506;11.876;2023-07-09T10:28:15;6.55;;;5.63;;
14584;SDS011;7379;51.506;11.876;2023-07-09T10:31:00;6.15;;;4.95;;
14584;SDS011;7379;51.506;11.876;2023-07-09T10:33:39;5.85;;;4.88;;
14584;SDS011;7379;51.506;11.876;2023-07-09T10:36:18;7.43;;;5.30;;
14584;SDS011;7379;51.506;11.876;2023-07-09T10:39:00;6.43;;;5.28;;
14584;SDS011;7379;51.506;11.876;2023-07-09T10:41:31;6.15;;;4.90;;
14584;SDS011;7379;51.506;11.876;2023-07-09T10:44:00;5.55;;;5.05;;
14584;SDS011;7379;51.506;11.876;2023-07-09T10:46:31;7.40;;;5.50;;
14584;SDS011;7379;51.506;11.876;2023-07-09T10:49:00;5.55;;;5.05;;
14584;SDS011;7379;51.506;11.876;2023-07-09T10:51:31;5.82;;;5.03;;
14584;SDS011;7379;51.506;11.876;2023-07-09T10:54:07;6.13;;;5.53;;
14584;SDS011;7379;51.506;11.876;2023-07-09T10:56:40;6.28;;;5.28;;
14584;SDS011;7379;51.506;11.876;2023-07-09T10:59:11;5.57;;;5.07;;
14584;SDS011;7379;51.506;11.876;2023-07-09T11:01:45;5.90;;;5.30;;
14584;SDS011;7379;51.506;11.876;2023-07-09T11:04:18;7.10;;;4.93;;
14584;SDS011;7379;51.506;11.876;2023-07-09T11:06:53;6.07;;;5.22;;
14584;SDS011;7379;51.506;11.876;2023-07-09T11:09:27;6.20;;;4.95;;
14584;SDS011;7379;51.506;11.876;2023-07-09T11:11:58;5.50;;;4.95;;
14584;SDS011;7379;51.506;11.876;2023-07-09T11:14:30;7.68;;;5.13;;
14584;SDS011;7379;51.506;11.876;2023-07-09T11:17:02;5.78;;;4.95;;
14584;SDS011;7379;51.506;11.876;2023-07-09T11:19:33;5.97;;;4.97;;
14584;SDS011;7379;51.506;11.876;2023-07-09T11:22:13;6.10;;;5.40;;
14584;SDS011;7379;51.506;11.876;2023-07-09T11:24:47;5.78;;;5.07;;
14584;SDS011;7379;51.506;11.876;2023-07-09T11:27:17;5.90;;;5.30;;
14584;SDS011;7379;51.506;11.876;2023-07-09T11:29:46;5.55;;;5.05;;
14584;SDS011;7379;51.506;11.876;2023-07-09T11:32:17;6.32;;;5.68;;
14584;SDS011;7379;51.506;11.876;2023-07-09T11:34:45;6.20;;;5.25;;
14584;SDS011;7379;51.506;11.876;2023-07-09T11:37:13;6.88;;;5.43;;
14584;SDS011;7379;51.506;11.876;2023-07-09T11:39:44;7.40;;;5.35;;
14584;SDS011;7379;51.506;11.876;2023-07-09T11:42:23;7.03;;;5.43;;
14584;SDS011;7379;51.506;11.876;2023-07-09T11:44:51;8.98;;;5.25;;
14584;SDS011;7379;51.506;11.876;2023-07-09T11:47:23;6.00;;;5.32;;
14584;SDS011;7379;51.506;11.876;2023-07-09T11:49:54;6.00;;;5.10;;
14584;SDS011;7379;51.506;11.876;2023-07-09T11:52:24;7.05;;;5.60;;
14584;SDS011;7379;51.506;11.876;2023-07-09T11:54:56;6.18;;;5.38;;
14584;SDS011;7379;51.506;11.876;2023-07-09T11:57:23;7.82;;;5.63;;
14584;SDS011;7379;51.506;11.876;2023-07-09T11:59:49;7.15;;;5.65;;
14584;SDS011;7379;51.506;11.876;2023-07-09T12:02:17;7.28;;;5.55;;
14584;SDS011;7379;51.506;11.876;2023-07-09T12:04:47;6.03;;;5.43;;
14584;SDS011;7379;51.506;11.876;2023-07-09T12:07:15;6.60;;;5.40;;
14584;SDS011;7379;51.506;11.876;2023-07-09T12:09:45;5.75;;;5.15;;
14584;SDS011;7379;51.506;11.876;2023-07-09T12:12:18;6.07;;;5.47;;
14584;SDS011;7379;51.506;11.876;2023-07-09T12:14:47;6.32;;;5.40;;
14584;SDS011;7379;51.506;11.876;2023-07-09T12:17:14;5.82;;;5.25;;
14584;SDS011;7379;51.506;11.876;2023-07-09T12:19:40;7.75;;;5.43;;
14584;SDS011;7379;51.506;11.876;2023-07-09T12:22:18;6.07;;;5.47;;
14584;SDS011;7379;51.506;11.876;2023-07-09T12:24:47;6.97;;;5.70;;
14584;SDS011;7379;51.506;11.876;2023-07-09T12:27:17;6.20;;;5.60;;
14584;SDS011;7379;51.506;11.876;2023-07-09T12:29:46;5.72;;;5.13;;
14584;SDS011;7379;51.506;11.876;2023-07-09T12:32:16;6.55;;;5.45;;
14584;SDS011;7379;51.506;11.876;2023-07-09T12:34:46;8.05;;;5.50;;
14584;SDS011;7379;51.506;11.876;2023-07-09T12:37:14;6.32;;;5.20;;
14584;SDS011;7379;51.506;11.876;2023-07-09T12:39:41;7.05;;;5.38;;
14584;SDS011;7379;51.506;11.876;2023-07-09T12:42:09;7.75;;;5.55;;
14584;SDS011;7379;51.506;11.876;2023-07-09T12:44:43;6.60;;;5.50;;
14584;SDS011;7379;51.506;11.876;2023-07-09T12:47:12;9.20;;;5.82;;
14584;SDS011;7379;51.506;11.876;2023-07-09T12:49:41;13.27;;;5.40;;
14584;SDS011;7379;51.506;11.876;2023-07-09T12:52:09;12.20;;;5.60;;
14584;SDS011;7379;51.506;11.876;2023-07-09T12:54:51;8.98;;;5.53;;
14584;SDS011;7379;51.506;11.876;2023-07-09T12:57:21;7.60;;;5.60;;
14584;SDS011;7379;51.506;11.876;2023-07-09T12:59:49;8.20;;;5.32;;
14584;SDS011;7379;51.506;11.876;2023-07-09T13:02:17;7.10;;;5.35;;
14584;SDS011;7379;51.506;11.876;2023-07-09T13:04:46;8.48;;;5.43;;
14584;SDS011;7379;51.506;11.876;2023-07-09T13:07:26;7.68;;;5.50;;
14584;SDS011;7379;51.506;11.876;2023-07-09T13:10:03;10.23;;;5.05;;
14584;SDS011;7379;51.506;11.876;2023-07-09T13:12:32;8.23;;;5.68;;
14584;SDS011;7379;51.506;11.876;2023-07-09T13:15:01;8.00;;;5.90;;
14584;SDS011;7379;51.506;11.876;2023-07-09T13:17:29;6.63;;;5.40;;
14584;SDS011;7379;51.506;11.876;2023-07-09T13:19:56;9.05;;;5.70;;
14584;SDS011;7379;51.506;11.876;2023-07-09T13:22:24;7.70;;;5.80;;
14584;SDS011;7379;51.506;11.876;2023-07-09T13:24:51;8.68;;;5.18;;
14584;SDS011;7379;51.506;11.876;2023-07-09T13:27:18;5.68;;;5.13;;
14584;SDS011;7379;51.506;11.876;2023-07-09T13:29:45;6.05;;;5.45;;
14584;SDS011;7379;51.506;11.876;2023-07-09T13:32:14;7.25;;;5.13;;
14584;SDS011;7379;51.506;11.876;2023-07-09T13:34:42;6.30;;;5.38;;
14584;SDS011;7379;51.506;11.876;2023-07-09T13:37:11;7.70;;;5.40;;
14584;SDS011;7379;51.506;11.876;2023-07-09T13:39:39;5.95;;;5.25;;
14584;SDS011;7379;51.506;11.876;2023-07-09T13:42:09;6.03;;;5.35;;
14584;SDS011;7379;51.506;11.876;2023-07-09T13:44:38;6.90;;;5.35;;
14584;SDS011;7379;51.506;11.876;2023-07-09T13:47:07;6.47;;;5.30;;
14584;SDS011;7379;51.506;11.876;2023-07-09T13:49:38;9.10;;;5.70;;
14584;SDS011;7379;51.506;11.876;2023-07-09T13:52:08;6.10;;;5.35;;
14584;SDS011;7379;51.506;11.876;2023-07-09T13:54:38;6.78;;;5.93;;
14584;SDS011;7379;51.506;11.876;2023-07-09T13:57:05;6.15;;;5.55;;
14584;SDS011;7379;51.506;11.876;2023-07-09T13:59:36;7.95;;;5.43;;
14584;SDS011;7379;51.506;11.876;2023-07-09T14:02:07;5.70;;;5.10;;
14584;SDS011;7379;51.506;11.876;2023-07-09T14:04:57;6.25;;;5.03;;
14584;SDS011;7379;51.506;11.876;2023-07-09T14:07:26;9.10;;;4.95;;
14584;SDS011;7379;51.506;11.876;2023-07-09T14:09:54;6.35;;;5.18;;
14584;SDS011;7379;51.506;11.876;2023-07-09T14:12:22;6.35;;;5.30;;
14584;SDS011;7379;51.506;11.876;2023-07-09T14:14:49;6.68;;;5.50;;
14584;SDS011;7379;51.506;11.876;2023-07-09T14:17:17;6.38;;;5.05;;
14584;SDS011;7379;51.506;11.876;2023-07-09T14:19:44;5.63;;;5.13;;
14584;SDS011;7379;51.506;11.876;2023-07-09T14:22:20;6.22;;;5.25;;
14584;SDS011;7379;51.506;11.876;2023-07-09T14:24:50;6.20;;;5.60;;
14584;SDS011;7379;51.506;11.876;2023-07-09T14:27:17;7.90;;;5.32;;
14584;SDS011;7379;51.506;11.876;2023-07-09T14:29:44;5.75;;;5.07;;
14584;SDS011;7379;51.506;11.876;2023-07-09T14:32:20;6.07;;;5.45;;
14584;SDS011;7379;51.506;11.876;2023-07-09T14:34:57;5.97;;;5.38;;
14584;SDS011;7379;51.506;11.876;2023-07-09T14:37:25;6.05;;;5.35;;
14584;SDS011;7379;51.506;11.876;2023-07-09T14:39:52;6.18;;;5.57;;
14584;SDS011;7379;51.506;11.876;2023-07-09T14:42:19;6.78;;;5.40;;
14584;SDS011;7379;51.506;11.876;2023-07-09T14:44:47;7.65;;;5.43;;
14584;SDS011;7379;51.506;11.876;2023-07-09T14:47:15;6.57;;;5.22;;
14584;SDS011;7379;51.506;11.876;2023-07-09T14:49:43;5.38;;;4.88;;
14584;SDS011;7379;51.506;11.876;2023-07-09T14:52:11;6.68;;;5.57;;
14584;SDS011;7379;51.506;11.876;2023-07-09T14:54:41;6.18;;;5.55;;
14584;SDS011;7379;51.506;11.876;2023-07-09T14:57:11;8.00;;;5.60;;
14584;SDS011;7379;51.506;11.876;2023-07-09T14:59:45;7.63;;;5.45;;
14584;SDS011;7379;51.506;11.876;2023-07-09T15:02:19;5.85;;;5.30;;
14584;SDS011;7379;51.506;11.876;2023-07-09T15:04:48;5.90;;;5.25;;